createdAt,value
2018-02-13T00:00:05.191Z,76.30
2018-02-13T00:02:34.712Z,76.20
2018-02-13T00:05:02.763Z,76.00
2018-02-13T00:07:30.875Z,76.90
2018-02-13T00:09:59.337Z,76.80
2018-02-13T00:12:27.380Z,75.90
2018-02-13T00:14:56.260Z,76.50
2018-02-13T00:17:24.331Z,76.50
2018-02-13T00:19:52.421Z,76.00
2018-02-13T00:22:20.523Z,75.70
2018-02-13T00:24:48.647Z,75.60
2018-02-13T00:27:16.740Z,75.80
2018-02-13T00:29:44.818Z,76.40
2018-02-13T00:32:12.896Z,76.20
2018-02-13T00:34:40.974Z,77.20
2018-02-13T00:37:09.081Z,76.20
2018-02-13T00:39:37.146Z,76.70
2018-02-13T00:42:05.213Z,76.70
2018-02-13T00:44:34.044Z,76.70
2018-02-13T00:47:02.125Z,76.60
2018-02-13T00:49:30.185Z,76.60
2018-02-13T00:51:58.316Z,76.70
2018-02-13T00:54:26.404Z,76.30
2018-02-13T00:56:54.570Z,75.90
2018-02-13T00:59:22.659Z,75.50
2018-02-13T01:01:50.728Z,75.30
2018-02-13T01:04:18.802Z,76.10
2018-02-13T01:06:46.881Z,76.00
2018-02-13T01:09:15.042Z,75.60
2018-02-13T01:11:43.859Z,75.50
2018-02-13T01:14:11.992Z,75.50
2018-02-13T01:16:40.078Z,74.30
2018-02-13T01:19:08.159Z,74.60
2018-02-13T01:21:36.256Z,74.70
2018-02-13T01:24:04.383Z,75.70
2018-02-13T01:26:33.190Z,76.00
2018-02-13T01:29:01.263Z,76.00
2018-02-13T01:31:30.103Z,76.90
2018-02-13T01:33:58.175Z,76.80
2018-02-13T01:36:26.237Z,74.20
2018-02-13T01:38:54.280Z,73.90
2018-02-13T01:41:22.360Z,74.20
2018-02-13T01:43:50.432Z,74.80
2018-02-13T01:46:18.571Z,73.70
2018-02-13T01:48:46.679Z,74.30
2018-02-13T01:51:14.783Z,74.30
2018-02-13T01:53:42.844Z,74.60
2018-02-13T01:56:10.910Z,75.10
2018-02-13T01:58:38.988Z,75.30
2018-02-13T02:01:07.049Z,75.70
2018-02-13T02:03:35.108Z,75.50
2018-02-13T02:06:03.180Z,74.30
2018-02-13T02:08:31.350Z,73.80
2018-02-13T02:10:59.576Z,73.40
2018-02-13T02:13:27.696Z,74.10
2018-02-13T02:15:55.764Z,74.40
2018-02-13T02:18:24.586Z,75.90
2018-02-13T02:20:52.757Z,75.80
2018-02-13T02:23:20.825Z,76.00
2018-02-13T02:25:49.642Z,76.00
2018-02-13T02:28:17.751Z,76.00
2018-02-13T02:30:45.841Z,75.80
2018-02-13T02:33:13.895Z,75.90
2018-02-13T02:35:41.952Z,76.30
2018-02-13T02:38:09.995Z,75.50
2018-02-13T02:40:38.065Z,76.00
2018-02-13T02:43:06.143Z,75.60
2018-02-13T02:45:34.344Z,75.60
2018-02-13T02:48:02.401Z,75.10
2018-02-13T02:50:30.489Z,75.60
2018-02-13T02:52:58.542Z,74.80
2018-02-13T02:55:27.366Z,74.60
2018-02-13T02:57:55.435Z,74.60
2018-02-13T03:00:25.060Z,73.70
2018-02-13T03:02:53.918Z,74.50
2018-02-13T03:05:22.378Z,74.50
2018-02-13T03:07:50.459Z,75.90
2018-02-13T03:10:18.479Z,75.50
2018-02-13T03:12:46.657Z,74.30
2018-02-13T03:15:14.734Z,74.20
2018-02-13T03:17:42.829Z,73.60
2018-02-13T03:20:10.885Z,74.50
2018-02-13T03:22:38.930Z,75.60
2018-02-13T03:25:07.782Z,77.10
2018-02-13T03:27:35.846Z,77.10
2018-02-13T03:30:04.481Z,78.40
2018-02-13T03:32:32.575Z,77.90
2018-02-13T03:35:00.590Z,77.90
2018-02-13T03:37:28.662Z,78.40
2018-02-13T03:39:57.799Z,78.80
2018-02-13T03:42:25.859Z,78.80
2018-02-13T03:44:53.945Z,78.20
2018-02-13T03:47:21.979Z,77.90
2018-02-13T03:49:50.043Z,76.10
2018-02-13T03:52:18.130Z,76.70
2018-02-13T03:54:46.187Z,77.70
2018-02-13T03:57:14.244Z,78.00
2018-02-13T03:59:42.482Z,78.20
2018-02-13T04:02:10.599Z,78.50
2018-02-13T04:04:38.666Z,77.80
2018-02-13T04:07:06.793Z,78.20
2018-02-13T04:09:35.632Z,78.50
2018-02-13T04:12:03.696Z,78.40
2018-02-13T04:14:31.815Z,78.30
2018-02-13T04:16:59.984Z,78.20
2018-02-13T04:19:28.121Z,78.70
2018-02-13T04:21:56.183Z,78.20
2018-02-13T04:24:24.264Z,78.00
2018-02-13T04:26:52.333Z,78.90
2018-02-13T04:29:20.438Z,79.90
2018-02-13T04:31:48.773Z,79.30
2018-02-13T04:34:16.803Z,78.40
2018-02-13T04:36:44.863Z,77.80
2018-02-13T04:39:12.920Z,77.70
2018-02-13T04:41:40.978Z,77.90
2018-02-13T04:44:09.069Z,78.50
2018-02-13T04:46:37.231Z,79.20
2018-02-13T04:49:06.027Z,79.20
2018-02-13T04:51:34.100Z,78.60
2018-02-13T04:54:02.188Z,79.50
2018-02-13T04:56:30.273Z,79.70
2018-02-13T04:58:58.314Z,79.50
2018-02-13T05:01:26.547Z,79.40
2018-02-13T05:03:54.615Z,78.80
2018-02-13T05:06:22.692Z,78.70
2018-02-13T05:08:50.772Z,79.50
2018-02-13T05:11:18.864Z,79.20
2018-02-13T05:13:46.973Z,79.40
2018-02-13T05:16:15.042Z,80.00
2018-02-13T05:18:43.284Z,79.80
2018-02-13T05:21:11.374Z,79.50
2018-02-13T05:23:40.220Z,79.50
2018-02-13T05:26:08.360Z,79.10
2018-02-13T05:28:36.435Z,78.70
2018-02-13T05:31:04.531Z,79.10
2018-02-13T05:33:32.573Z,78.60
2018-02-13T05:36:01.422Z,78.90
2018-02-13T05:38:29.497Z,78.80
2018-02-13T05:40:57.576Z,78.70
2018-02-13T05:43:25.656Z,78.90
2018-02-13T05:45:53.738Z,78.90
2018-02-13T05:48:21.828Z,78.90
2018-02-13T05:50:49.916Z,78.50
2018-02-13T05:53:18.015Z,78.30
2018-02-13T05:55:46.072Z,77.50
2018-02-13T05:58:16.900Z,76.80
2018-02-13T06:00:44.952Z,77.10
2018-02-13T06:03:13.020Z,77.50
2018-02-13T06:05:41.915Z,77.80
2018-02-13T06:08:09.995Z,78.00
2018-02-13T06:10:38.062Z,78.00
2018-02-13T06:13:06.120Z,78.80
2018-02-13T06:15:34.193Z,78.00
2018-02-13T06:18:03.066Z,77.40
2018-02-13T06:20:31.154Z,77.30
2018-02-13T06:22:59.317Z,76.80
2018-02-13T06:25:27.404Z,77.20
2018-02-13T06:27:55.457Z,77.10
2018-02-13T06:30:23.524Z,77.10
2018-02-13T06:32:52.355Z,77.60
2018-02-13T06:35:20.426Z,77.40
2018-02-13T06:37:48.924Z,77.90
2018-02-13T06:40:17.001Z,77.20
2018-02-13T06:42:45.808Z,77.50
2018-02-13T06:45:13.953Z,77.30
2018-02-13T06:47:42.011Z,77.10
2018-02-13T06:50:10.106Z,77.00
2018-02-13T06:52:38.139Z,77.00
2018-02-13T06:55:06.184Z,77.70
2018-02-13T06:57:34.247Z,76.20
2018-02-13T07:00:02.318Z,74.80
2018-02-13T07:02:30.390Z,74.80
2018-02-13T07:04:58.461Z,74.60
2018-02-13T07:07:26.539Z,75.70
2018-02-13T07:09:54.721Z,74.90
2018-02-13T07:12:22.784Z,74.60
2018-02-13T07:14:51.606Z,75.10
2018-02-13T07:17:19.662Z,75.10
2018-02-13T07:19:48.484Z,74.70
2018-02-13T07:22:17.315Z,74.70
2018-02-13T07:24:45.394Z,74.70
2018-02-13T07:27:13.470Z,75.00
2018-02-13T07:29:41.526Z,74.20
2018-02-13T07:32:09.580Z,73.80
2018-02-13T07:34:37.647Z,72.70
2018-02-13T07:37:05.723Z,73.10
2018-02-13T07:39:33.780Z,73.00
2018-02-13T07:42:01.826Z,72.30
2018-02-13T07:44:29.891Z,72.30
2018-02-13T07:46:58.219Z,73.40
2018-02-13T07:49:27.082Z,72.90
2018-02-13T07:51:55.155Z,72.90
2018-02-13T07:54:23.237Z,73.20
2018-02-13T07:56:51.335Z,73.40
2018-02-13T07:59:19.382Z,72.70
2018-02-13T08:01:47.464Z,73.00
2018-02-13T08:04:15.525Z,73.00
2018-02-13T08:06:43.595Z,73.10
2018-02-13T08:09:11.667Z,72.90
2018-02-13T08:11:39.759Z,72.30
2018-02-13T08:14:08.790Z,73.10
2018-02-13T08:16:36.810Z,73.10
2018-02-13T08:19:04.905Z,73.40
2018-02-13T08:21:32.958Z,71.80
2018-02-13T08:24:01.030Z,70.00
2018-02-13T08:26:29.108Z,69.10
2018-02-13T08:28:57.193Z,69.30
2018-02-13T08:31:25.264Z,69.70
2018-02-13T08:33:54.134Z,68.00
2018-02-13T08:36:22.202Z,68.00
2018-02-13T08:38:50.258Z,66.00
2018-02-13T08:41:18.348Z,66.50
2018-02-13T08:43:46.385Z,66.90
2018-02-13T08:46:15.213Z,62.60
2018-02-13T08:48:43.255Z,62.50
2018-02-13T08:51:11.306Z,62.40
2018-02-13T08:53:39.368Z,61.40
2018-02-13T08:56:07.443Z,61.70
2018-02-13T08:58:36.240Z,59.30
2018-02-13T09:01:04.549Z,59.30
2018-02-13T09:03:32.609Z,59.80
2018-02-13T09:06:00.654Z,58.20
2018-02-13T09:08:28.712Z,58.30
2018-02-13T09:10:56.760Z,57.50
2018-02-13T09:13:24.815Z,55.70
2018-02-13T09:15:52.868Z,54.70
2018-02-13T09:18:20.959Z,54.60
2018-02-13T09:20:49.009Z,54.20
2018-02-13T09:23:17.090Z,54.10
2018-02-13T09:25:45.135Z,54.00
2018-02-13T09:28:13.193Z,53.80
2018-02-13T09:30:41.248Z,53.20
2018-02-13T09:33:09.443Z,54.60
2018-02-13T09:35:37.501Z,54.40
2018-02-13T09:38:08.066Z,54.40
2018-02-13T09:40:38.066Z,53.70
2018-02-13T09:43:06.120Z,53.70
2018-02-13T09:45:34.166Z,53.50
2018-02-13T09:48:02.233Z,54.30
2018-02-13T09:50:30.295Z,54.70
2018-02-13T09:52:58.353Z,53.50
2018-02-13T09:55:26.411Z,53.90
2018-02-13T09:57:54.464Z,52.80
2018-02-13T10:00:22.520Z,53.20
2018-02-13T10:02:50.549Z,50.70
2018-02-13T10:05:18.640Z,48.80
2018-02-13T10:07:46.693Z,47.00
2018-02-13T10:10:14.762Z,47.00
2018-02-13T10:12:42.811Z,46.60
2018-02-13T10:15:10.927Z,46.50
2018-02-13T10:17:38.955Z,45.40
2018-02-13T10:20:06.991Z,44.30
2018-02-13T10:22:35.036Z,43.20
2018-02-13T10:25:03.098Z,38.10
2018-02-13T10:27:31.154Z,35.20
2018-02-13T10:29:59.203Z,33.60
2018-02-13T10:32:28.040Z,37.20
2018-02-13T10:34:56.091Z,37.10
2018-02-13T10:37:24.924Z,41.20
2018-02-13T10:39:52.979Z,41.10
2018-02-13T10:42:21.792Z,43.40
2018-02-13T10:44:49.850Z,43.40
2018-02-13T10:47:17.908Z,44.80
2018-02-13T10:49:45.965Z,44.10
2018-02-13T10:52:14.003Z,43.50
2018-02-13T10:54:42.063Z,41.00
2018-02-13T10:57:10.132Z,39.40
2018-02-13T10:59:38.203Z,38.30
2018-02-13T11:02:11.911Z,34.10
2018-02-13T11:04:39.977Z,32.20
2018-02-13T11:07:08.031Z,31.70
2018-02-13T11:09:36.096Z,30.30
2018-02-13T11:12:04.159Z,27.10
2018-02-13T11:14:32.207Z,25.00
2018-02-13T11:17:00.341Z,24.10
2018-02-13T11:19:28.390Z,23.20
2018-02-13T11:21:56.463Z,22.40
2018-02-13T11:24:24.500Z,22.30
2018-02-13T11:26:53.338Z,20.60
2018-02-13T11:29:21.388Z,20.60
2018-02-13T11:31:49.448Z,19.70
2018-02-13T11:34:17.499Z,19.40
2018-02-13T11:36:45.542Z,19.80
2018-02-13T11:39:13.610Z,19.60
2018-02-13T11:41:41.688Z,20.80
2018-02-13T11:44:09.754Z,20.20
2018-02-13T11:46:37.836Z,19.30
2018-02-13T11:49:05.891Z,18.80
2018-02-13T11:51:34.088Z,20.60
2018-02-13T11:54:02.173Z,19.30
2018-02-13T11:56:31.060Z,18.90
2018-02-13T11:58:59.870Z,18.20
2018-02-13T12:01:27.937Z,18.10
2018-02-13T12:03:56.784Z,17.40
2018-02-13T12:06:24.853Z,17.30
2018-02-13T12:08:52.910Z,18.20
2018-02-13T12:11:21.057Z,18.30
2018-02-13T12:13:49.335Z,18.10
2018-02-13T12:16:17.758Z,18.00
2018-02-13T12:18:45.774Z,18.20
2018-02-13T12:21:13.838Z,17.80
2018-02-13T12:23:42.644Z,17.40
2018-02-13T12:26:10.702Z,17.30
2018-02-13T12:28:38.760Z,16.70
2018-02-13T12:31:06.857Z,16.30
2018-02-13T12:33:34.911Z,16.90
2018-02-13T12:36:03.092Z,16.10
2018-02-13T12:38:32.063Z,17.50
2018-02-13T12:41:00.891Z,18.90
2018-02-13T12:43:29.153Z,18.90
2018-02-13T12:45:57.970Z,17.80
2018-02-13T12:48:26.038Z,17.80
2018-02-13T12:50:54.079Z,18.20
2018-02-13T12:53:22.160Z,18.10
2018-02-13T12:55:50.226Z,16.30
2018-02-13T12:58:18.290Z,17.50
2018-02-13T13:00:46.358Z,18.90
2018-02-13T13:03:14.412Z,20.40
2018-02-13T13:05:42.472Z,19.40
2018-02-13T13:08:10.550Z,20.90
2018-02-13T13:10:38.595Z,21.10
2018-02-13T13:13:06.638Z,21.40
2018-02-13T13:15:34.710Z,21.80
2018-02-13T13:18:02.781Z,21.60
2018-02-13T13:20:30.846Z,21.00
2018-02-13T13:22:59.038Z,20.60
2018-02-13T13:25:27.108Z,21.70
2018-02-13T13:27:55.205Z,22.20
2018-02-13T13:30:23.260Z,23.50
2018-02-13T13:32:51.316Z,23.40
2018-02-13T13:35:19.398Z,23.00
2018-02-13T13:37:47.509Z,22.20
2018-02-13T13:40:16.340Z,19.60
2018-02-13T13:42:44.418Z,19.60
2018-02-13T13:45:12.488Z,19.70
2018-02-13T13:47:40.626Z,20.10
2018-02-13T13:50:08.686Z,20.00
2018-02-13T13:52:36.749Z,19.70
2018-02-13T13:55:04.819Z,19.60
2018-02-13T13:57:32.883Z,20.00
2018-02-13T14:00:00.986Z,18.90
2018-02-13T14:02:29.044Z,19.30
2018-02-13T14:04:58.704Z,20.90
2018-02-13T14:07:26.749Z,20.90
2018-02-13T14:09:54.860Z,21.00
2018-02-13T14:12:22.907Z,21.20
2018-02-13T14:14:50.950Z,21.20
2018-02-13T14:17:19.016Z,21.50
2018-02-13T14:19:47.074Z,21.80
2018-02-13T14:22:15.901Z,22.30
2018-02-13T14:24:43.950Z,22.30
2018-02-13T14:27:12.008Z,23.00
2018-02-13T14:29:40.053Z,24.00
2018-02-13T14:32:08.128Z,24.00
2018-02-13T14:34:36.212Z,24.70
2018-02-13T14:37:04.279Z,25.60
2018-02-13T14:39:33.094Z,27.20
2018-02-13T14:42:01.153Z,27.20
2018-02-13T14:44:29.995Z,26.80
2018-02-13T14:46:58.062Z,26.80
2018-02-13T14:49:26.161Z,27.50
2018-02-13T14:51:54.207Z,29.10
2018-02-13T14:54:23.032Z,31.00
2018-02-13T14:56:51.086Z,31.00
2018-02-13T14:59:19.149Z,32.30
2018-02-13T15:01:47.322Z,33.80
2018-02-13T15:04:15.374Z,33.70
2018-02-13T15:06:43.423Z,33.80
2018-02-13T15:09:11.492Z,32.70
2018-02-13T15:11:39.552Z,34.10
2018-02-13T15:14:07.614Z,33.80
2018-02-13T15:16:35.670Z,34.70
2018-02-13T15:19:04.506Z,35.60
2018-02-13T15:21:32.569Z,35.50
2018-02-13T15:24:00.607Z,35.80
2018-02-13T15:26:28.691Z,35.80
2018-02-13T15:28:56.748Z,36.30
2018-02-13T15:31:24.893Z,36.50
2018-02-13T15:33:52.940Z,36.60
2018-02-13T15:36:20.991Z,37.10
2018-02-13T15:38:49.064Z,37.80
2018-02-13T15:41:17.141Z,38.10
2018-02-13T15:43:45.188Z,37.90
2018-02-13T15:46:13.240Z,37.30
2018-02-13T15:48:41.306Z,37.80
2018-02-13T15:51:09.363Z,38.40
2018-02-13T15:53:38.192Z,38.00
2018-02-13T15:56:06.246Z,38.00
2018-02-13T15:58:34.308Z,38.30
2018-02-13T16:01:02.362Z,37.90
2018-02-13T16:03:30.440Z,38.70
2018-02-13T16:05:58.507Z,39.70
2018-02-13T16:08:26.564Z,40.00
2018-02-13T16:10:54.624Z,40.20
2018-02-13T16:13:22.663Z,40.70
2018-02-13T16:15:50.730Z,40.00
2018-02-13T16:18:18.783Z,40.10
2018-02-13T16:20:47.595Z,40.80
2018-02-13T16:23:16.650Z,41.60
2018-02-13T16:25:44.707Z,41.50
2018-02-13T16:28:12.788Z,41.90
2018-02-13T16:30:40.883Z,42.60
2018-02-13T16:33:08.948Z,43.00
2018-02-13T16:35:37.160Z,42.40
2018-02-13T16:38:05.176Z,42.60
2018-02-13T16:40:33.224Z,42.60
2018-02-13T16:43:01.287Z,42.80
2018-02-13T16:45:29.989Z,43.00
2018-02-13T16:47:58.071Z,43.50
2018-02-13T16:50:26.135Z,43.80
2018-02-13T16:52:55.223Z,44.30
2018-02-13T16:55:23.263Z,44.30
2018-02-13T16:57:51.323Z,43.90
2018-02-13T17:00:19.391Z,44.00
2018-02-13T17:02:47.444Z,44.40
2018-02-13T17:05:15.528Z,44.10
2018-02-13T17:07:43.646Z,45.00
2018-02-13T17:10:11.721Z,45.50
2018-02-13T17:12:41.076Z,45.90
2018-02-13T17:15:09.140Z,45.90
2018-02-13T17:17:37.187Z,45.90
2018-02-13T17:20:06.052Z,46.90
2018-02-13T17:22:34.100Z,46.90
2018-02-13T17:25:02.192Z,47.20
2018-02-13T17:27:30.372Z,47.70
2018-02-13T17:29:58.432Z,48.10
2018-02-13T17:32:27.263Z,48.20
2018-02-13T17:34:55.304Z,48.20
2018-02-13T17:37:24.125Z,48.40
2018-02-13T17:39:52.192Z,48.30
2018-02-13T17:42:20.301Z,48.80
2018-02-13T17:44:49.103Z,49.70
2018-02-13T17:47:17.238Z,49.60
2018-02-13T17:49:45.343Z,50.30
2018-02-13T17:52:13.391Z,51.30
2018-02-13T17:54:41.438Z,50.50
2018-02-13T17:57:09.499Z,50.50
2018-02-13T17:59:38.336Z,51.70
2018-02-13T18:02:06.433Z,51.60
2018-02-13T18:04:34.499Z,51.60
2018-02-13T18:07:02.575Z,52.30
2018-02-13T18:09:30.716Z,51.80
2018-02-13T18:11:58.781Z,51.80
2018-02-13T18:14:26.854Z,52.00
2018-02-13T18:16:54.904Z,52.40
2018-02-13T18:19:22.969Z,52.30
2018-02-13T18:21:51.786Z,52.60
2018-02-13T18:24:19.852Z,52.50
2018-02-13T18:26:49.326Z,53.20
2018-02-13T18:29:17.386Z,53.10
2018-02-13T18:31:45.454Z,53.30
2018-02-13T18:34:13.512Z,53.50
2018-02-13T18:36:42.370Z,54.40
2018-02-13T18:39:10.469Z,53.70
2018-02-13T18:41:38.553Z,53.40
2018-02-13T18:44:06.725Z,53.20
2018-02-13T18:46:34.793Z,53.00
2018-02-13T18:49:02.883Z,53.70
2018-02-13T18:51:30.992Z,54.30
2018-02-13T18:53:59.081Z,55.00
2018-02-13T18:56:27.147Z,54.50
2018-02-13T18:58:55.202Z,53.30
2018-02-13T19:01:23.282Z,53.70
2018-02-13T19:03:51.340Z,53.90
2018-02-13T19:06:20.165Z,53.50
2018-02-13T19:08:48.231Z,53.50
2018-02-13T19:11:17.073Z,54.10
2018-02-13T19:13:45.141Z,54.00
2018-02-13T19:16:13.984Z,53.80
2018-02-13T19:18:42.044Z,53.70
2018-02-13T19:21:10.095Z,53.50
2018-02-13T19:23:38.207Z,52.70
2018-02-13T19:26:06.281Z,53.20
2018-02-13T19:28:34.353Z,53.40
2018-02-13T19:31:02.414Z,53.80
2018-02-13T19:33:31.232Z,54.50
2018-02-13T19:35:59.300Z,53.90
2018-02-13T19:38:28.107Z,53.10
2018-02-13T19:40:56.928Z,52.60
2018-02-13T19:43:24.985Z,52.60
2018-02-13T19:45:53.593Z,52.70
2018-02-13T19:48:21.807Z,53.40
2018-02-13T19:50:49.865Z,52.50
2018-02-13T19:53:17.978Z,52.80
2018-02-13T19:55:46.055Z,52.60
2018-02-13T19:58:14.136Z,52.10
2018-02-13T20:00:42.945Z,51.90
2018-02-13T20:03:11.008Z,51.90
2018-02-13T20:05:39.068Z,52.00
2018-02-13T20:08:07.162Z,52.10
2018-02-13T20:10:35.997Z,52.10
2018-02-13T20:13:04.065Z,52.10
2018-02-13T20:15:32.158Z,52.10
2018-02-13T20:18:00.277Z,52.00
2018-02-13T20:20:28.367Z,51.90
2018-02-13T20:22:59.172Z,52.20
2018-02-13T20:25:27.249Z,52.50
2018-02-13T20:27:55.325Z,52.30
2018-02-13T20:30:23.421Z,52.50
2018-02-13T20:32:51.480Z,52.40
2018-02-13T20:35:20.359Z,52.60
2018-02-13T20:37:48.381Z,52.50
2018-02-13T20:40:16.459Z,52.50
2018-02-13T20:42:44.588Z,52.40
2018-02-13T20:45:12.667Z,52.40
2018-02-13T20:47:40.728Z,52.20
2018-02-13T20:50:08.833Z,52.50
2018-02-13T20:52:36.905Z,52.80
2018-02-13T20:55:04.985Z,52.60
2018-02-13T20:57:33.053Z,52.90
2018-02-13T21:00:01.139Z,52.80
2018-02-13T21:02:29.976Z,52.90
2018-02-13T21:04:58.238Z,52.90
2018-02-13T21:07:26.312Z,53.00
2018-02-13T21:09:54.356Z,52.60
2018-02-13T21:12:22.485Z,52.60
2018-02-13T21:14:52.634Z,52.70
2018-02-13T21:17:20.712Z,52.60
2018-02-13T21:19:48.801Z,52.60
2018-02-13T21:22:16.879Z,52.90
2018-02-13T21:24:44.929Z,53.20
2018-02-13T21:27:13.015Z,53.90
2018-02-13T21:29:41.858Z,54.30
2018-02-13T21:32:09.935Z,54.20
2018-02-13T21:34:37.969Z,54.40
2018-02-13T21:37:06.808Z,54.60
2018-02-13T21:39:34.873Z,54.50
2018-02-13T21:42:02.983Z,54.90
2018-02-13T21:44:31.186Z,55.30
2018-02-13T21:47:00.272Z,55.40
2018-02-13T21:49:28.537Z,55.50
2018-02-13T21:51:59.252Z,55.30
2018-02-13T21:54:27.472Z,55.80
2018-02-13T21:56:55.590Z,55.90
2018-02-13T21:59:23.781Z,56.20
2018-02-13T22:01:52.443Z,56.30
2018-02-13T22:04:21.272Z,55.70
2018-02-13T22:06:51.154Z,56.00
2018-02-13T22:09:20.402Z,56.00
2018-02-13T22:11:48.607Z,56.70
2018-02-13T22:14:17.467Z,56.80
2018-02-13T22:16:45.514Z,56.70
2018-02-13T22:19:13.579Z,57.20
2018-02-13T22:21:41.680Z,57.70
2018-02-13T22:24:11.386Z,57.80
2018-02-13T22:26:40.499Z,58.00
2018-02-13T22:29:08.566Z,58.60
2018-02-13T22:31:36.643Z,58.80
2018-02-13T22:34:04.720Z,58.90
2018-02-13T22:36:32.791Z,58.80
2018-02-13T22:39:00.859Z,59.20
2018-02-13T22:41:28.959Z,59.40
2018-02-13T22:43:57.043Z,59.10
2018-02-13T22:46:25.094Z,59.60
2018-02-13T22:48:53.939Z,60.10
2018-02-13T22:51:21.996Z,60.00
2018-02-13T22:53:50.131Z,59.80
2018-02-13T22:56:18.195Z,60.20
2018-02-13T22:58:46.271Z,60.70
2018-02-13T23:01:14.439Z,60.70
2018-02-13T23:03:42.653Z,61.00
2018-02-13T23:06:10.837Z,61.20
2018-02-13T23:08:39.032Z,61.10
2018-02-13T23:11:07.100Z,61.80
2018-02-13T23:13:36.374Z,62.20
2018-02-13T23:16:05.191Z,62.40
2018-02-13T23:18:33.391Z,62.40
2018-02-13T23:21:02.464Z,62.70
2018-02-13T23:23:31.605Z,63.60
2018-02-13T23:25:59.708Z,63.20
2018-02-13T23:28:27.838Z,63.10
2018-02-13T23:30:56.681Z,62.70
2018-02-13T23:33:25.548Z,62.70
2018-02-13T23:35:53.711Z,63.00
2018-02-13T23:38:22.088Z,63.40
2018-02-13T23:40:50.995Z,63.00
2018-02-13T23:43:19.199Z,62.90
2018-02-13T23:45:47.361Z,62.50
2018-02-13T23:48:16.300Z,62.20
2018-02-13T23:50:44.354Z,63.00
2018-02-13T23:53:12.450Z,62.20
2018-02-13T23:55:40.515Z,62.10
2018-02-13T23:58:08.585Z,62.20
